Newport, Canada
Current Conditions -  °F | °C
As of 10:00 PM on Friday 21 Nov 2014 (Local Time) from CYGP Reporting Station
Few Clouds Few Clouds  
Wind Chill:   Ceiling: Unl
Heat Index: 18°   Visibility: 15mi
Dew Point: 14°   Wind: 9mph
Humidity: 86%   Direction: 280°W
Pressure: 29.86"   Gusts: NA
Location:  48.27°N, 64.75°W
Report Text: CYGP 220300Z 28008KT 15SM FEW012 M08/M10 A2986 RMK SC1 SLP113
Loading
Personal Weather Stations






























Interactive Weather Map New forecast layout! Learn more

10-Day Weather Forecast

Advertisements
Track Severe Weather on mobile